Lady Lola — ZCGQ7 — position and weather

sailwx.info

Track history (hours):
 
Tides and Currents Weather Stations Pressure Air Temp Water Temp Dewpoint Dewpoint Depression Visibility Wind Speed Wind Dir Waves Ship Positions

Lady Lola

Last reported at 2014-Jul-28 22:33 UTC. Time now 2014-Jul-29 06:40 UTC.
Position N 43°50' E 009°59'.

Length 62 m; draft 3.6 m.

Type: Pleasure craft. MMSI: 319713000.

Date/timePositionNaut miles runAvg speedWind from/ knotsBaromVisibWave heightAir tempDewpointWater temp
2014-Jul-28 22:33N 43°50' E 009°59'1312.7
2014-Jul-28 21:33N 43°59' E 009°47'1312.6
2014-Jul-28 20:31N 44°08' E 009°33'2612.5
2014-Jul-28 18:28N 44°17' E 009°00'80 6.1
2014-Jul-28 05:22N 43°42' E 007°21'0 0.0
2014-Jul-27 21:22N 43°42' E 007°21'0 0.0
2014-Jul-27 20:10N 43°42' E 007°21'0 0.0
2014-Jul-27 18:16N 43°42' E 007°21'0 0.0
2014-Jul-27 11:16N 43°42' E 007°21'0 0.0
2014-Jul-27 10:32N 43°42' E 007°21'0 0.0
2014-Jul-27 09:29N 43°42' E 007°20'0 0.0
2014-Jul-27 08:24N 43°42' E 007°20'0 0.0
2014-Jul-27 07:29N 43°42' E 007°20'0 0.0
2014-Jul-27 06:08N 43°42' E 007°21'0 0.0
2014-Jul-27 05:33N 43°42' E 007°21'0 0.0
2014-Jul-27 04:33N 43°42' E 007°21'0 0.0
2014-Jul-27 03:30N 43°42' E 007°21'0 0.0
2014-Jul-27 02:29N 43°42' E 007°21'0 0.0
2014-Jul-27 01:22N 43°42' E 007°21'0 0.0
2014-Jul-27 00:23N 43°42' E 007°21'0 0.0
2014-Jul-26 23:25N 43°42' E 007°21'0 0.0
2014-Jul-26 22:33N 43°42' E 007°21'0 0.0
2014-Jul-26 21:23N 43°42' E 007°21'0 0.0
2014-Jul-26 20:33N 43°42' E 007°21'0 0.0
2014-Jul-26 19:29N 43°42' E 007°20'0 0.0
2014-Jul-26 18:29N 43°42' E 007°20'0 0.0
2014-Jul-26 17:31N 43°42' E 007°20'0 0.0
2014-Jul-26 16:27N 43°42' E 007°20'0 0.0
2014-Jul-26 15:32N 43°42' E 007°20'0 0.0
2014-Jul-26 14:33N 43°42' E 007°21'0 0.0
2014-Jul-26 10:28N 43°42' E 007°20'0 0.0
2014-Jul-26 09:32N 43°42' E 007°20'0 0.0
2014-Jul-26 08:26N 43°42' E 007°20'0 0.0
2014-Jul-26 06:28N 43°42' E 007°21'0 0.0
2014-Jul-26 05:24N 43°42' E 007°21'0 0.0
2014-Jul-26 04:32N 43°42' E 007°21'0 0.0
2014-Jul-26 03:32N 43°42' E 007°21'0 0.0
2014-Jul-26 02:32N 43°42' E 007°21'0 0.0
2014-Jul-26 01:33N 43°42' E 007°21'6 5.8
2014-Jul-26 00:33N 43°37' E 007°16'1211.7
2014-Jul-25 23:33N 43°29' E 007°04'1212.2
2014-Jul-25 22:33N 43°22' E 006°50'1110.8
2014-Jul-25 21:33N 43°17' E 006°37'1 0.6
2014-Jul-25 20:28N 43°16' E 006°37'0 0.0
2014-Jul-25 19:31N 43°16' E 006°37'0 0.1
2014-Jul-25 18:33N 43°16' E 006°37'0 0.0
2014-Jul-25 17:31N 43°16' E 006°37'0 0.0
2014-Jul-25 16:33N 43°16' E 006°37'0 0.0
2014-Jul-25 15:33N 43°16' E 006°37'4 3.4
2014-Jul-25 14:30N 43°14' E 006°40'0 0.2
2014-Jul-25 13:33N 43°14' E 006°40'0 0.0
2014-Jul-25 12:33N 43°14' E 006°40'0 0.0
2014-Jul-25 11:33N 43°14' E 006°40'0 0.3
2014-Jul-25 10:33N 43°14' E 006°41'4 3.7
2014-Jul-25 09:33N 43°17' E 006°38'1 1.0
2014-Jul-25 08:33N 43°17' E 006°37'0 0.0
2014-Jul-25 07:27N 43°17' E 006°37'0 0.0
2014-Jul-25 05:33N 43°17' E 006°37'0 0.0
2014-Jul-25 04:24N 43°17' E 006°37'0 0.0
2014-Jul-25 02:27N 43°17' E 006°37'0 0.0
2014-Jul-25 01:33N 43°17' E 006°37'0 0.0
2014-Jul-25 00:33N 43°17' E 006°37'0 0.0
2014-Jul-24 23:33N 43°17' E 006°37'0 0.0
2014-Jul-24 22:33N 43°17' E 006°37'0 0.0
2014-Jul-24 21:33N 43°17' E 006°37'6 6.4
2014-Jul-24 20:33N 43°20' E 006°44'1312.7
2014-Jul-24 19:33N 43°27' E 006°59'1413.5
2014-Jul-24 18:32N 43°36' E 007°14'8 0.3
2014-Jul-23 18:23N 43°42' E 007°20'0 0.0
2014-Jul-23 02:17N 43°42' E 007°20'0 0.0
2014-Jul-22 15:11N 43°42' E 007°20'0 0.0
2014-Jul-22 12:11N 43°42' E 007°20'0 0.0
2014-Jul-22 05:33N 43°42' E 007°20'0 0.0
2014-Jul-22 04:28N 43°42' E 007°20'0 0.0
2014-Jul-22 03:25N 43°42' E 007°20'0 0.1
2014-Jul-22 02:21N 43°42' E 007°20'0 0.1
2014-Jul-22 01:25N 43°42' E 007°21'0 0.0
2014-Jul-22 00:33N 43°42' E 007°21'0 0.0
2014-Jul-21 23:30N 43°42' E 007°21'0 0.0
2014-Jul-21 22:08N 43°42' E 007°20'0 0.0
2014-Jul-21 21:12N 43°42' E 007°20'0 0.0
2014-Jul-21 20:01N 43°42' E 007°20'  
Track history (hours):
 
Tides and Currents Weather Stations Pressure Air Temp Water Temp Dewpoint Dewpoint Depression Visibility Wind Speed Wind Dir Waves Ship Positions

Lady Lola

Last reported at 2014-Jul-28 22:33 UTC. Time now 2014-Jul-29 06:40 UTC.
Position N 43°50' E 009°59'.

Length 62 m; draft 3.6 m.

Type: Pleasure craft. MMSI: 319713000.

Date/timePositionNaut miles runAvg speedWind from/ knotsBaromVisibWave heightAir tempDewpointWater temp
2014-Jul-28 22:33N 43°50' E 009°59'1312.7
2014-Jul-28 21:33N 43°59' E 009°47'1312.6
2014-Jul-28 20:31N 44°08' E 009°33'2612.5
2014-Jul-28 18:28N 44°17' E 009°00'80 6.1
2014-Jul-28 05:22N 43°42' E 007°21'0 0.0
2014-Jul-27 21:22N 43°42' E 007°21'0 0.0
2014-Jul-27 20:10N 43°42' E 007°21'0 0.0
2014-Jul-27 18:16N 43°42' E 007°21'0 0.0
2014-Jul-27 11:16N 43°42' E 007°21'0 0.0
2014-Jul-27 10:32N 43°42' E 007°21'0 0.0
2014-Jul-27 09:29N 43°42' E 007°20'0 0.0
2014-Jul-27 08:24N 43°42' E 007°20'0 0.0
2014-Jul-27 07:29N 43°42' E 007°20'0 0.0
2014-Jul-27 06:08N 43°42' E 007°21'0 0.0
2014-Jul-27 05:33N 43°42' E 007°21'0 0.0
2014-Jul-27 04:33N 43°42' E 007°21'0 0.0
2014-Jul-27 03:30N 43°42' E 007°21'0 0.0
2014-Jul-27 02:29N 43°42' E 007°21'0 0.0
2014-Jul-27 01:22N 43°42' E 007°21'0 0.0
2014-Jul-27 00:23N 43°42' E 007°21'0 0.0
2014-Jul-26 23:25N 43°42' E 007°21'0 0.0
2014-Jul-26 22:33N 43°42' E 007°21'0 0.0
2014-Jul-26 21:23N 43°42' E 007°21'0 0.0
2014-Jul-26 20:33N 43°42' E 007°21'0 0.0
2014-Jul-26 19:29N 43°42' E 007°20'0 0.0
2014-Jul-26 18:29N 43°42' E 007°20'0 0.0
2014-Jul-26 17:31N 43°42' E 007°20'0 0.0
2014-Jul-26 16:27N 43°42' E 007°20'0 0.0
2014-Jul-26 15:32N 43°42' E 007°20'0 0.0
2014-Jul-26 14:33N 43°42' E 007°21'0 0.0
2014-Jul-26 10:28N 43°42' E 007°20'0 0.0
2014-Jul-26 09:32N 43°42' E 007°20'0 0.0
2014-Jul-26 08:26N 43°42' E 007°20'0 0.0
2014-Jul-26 06:28N 43°42' E 007°21'0 0.0
2014-Jul-26 05:24N 43°42' E 007°21'0 0.0
2014-Jul-26 04:32N 43°42' E 007°21'0 0.0
2014-Jul-26 03:32N 43°42' E 007°21'0 0.0
2014-Jul-26 02:32N 43°42' E 007°21'0 0.0
2014-Jul-26 01:33N 43°42' E 007°21'6 5.8
2014-Jul-26 00:33N 43°37' E 007°16'1211.7
2014-Jul-25 23:33N 43°29' E 007°04'1212.2
2014-Jul-25 22:33N 43°22' E 006°50'1110.8
2014-Jul-25 21:33N 43°17' E 006°37'1 0.6
2014-Jul-25 20:28N 43°16' E 006°37'0 0.0
2014-Jul-25 19:31N 43°16' E 006°37'0 0.1
2014-Jul-25 18:33N 43°16' E 006°37'0 0.0
2014-Jul-25 17:31N 43°16' E 006°37'0 0.0
2014-Jul-25 16:33N 43°16' E 006°37'0 0.0
2014-Jul-25 15:33N 43°16' E 006°37'4 3.4
2014-Jul-25 14:30N 43°14' E 006°40'0 0.2
2014-Jul-25 13:33N 43°14' E 006°40'0 0.0
2014-Jul-25 12:33N 43°14' E 006°40'0 0.0
2014-Jul-25 11:33N 43°14' E 006°40'0 0.3
2014-Jul-25 10:33N 43°14' E 006°41'4 3.7
2014-Jul-25 09:33N 43°17' E 006°38'1 1.0
2014-Jul-25 08:33N 43°17' E 006°37'0 0.0
2014-Jul-25 07:27N 43°17' E 006°37'0 0.0
2014-Jul-25 05:33N 43°17' E 006°37'0 0.0
2014-Jul-25 04:24N 43°17' E 006°37'0 0.0
2014-Jul-25 02:27N 43°17' E 006°37'0 0.0
2014-Jul-25 01:33N 43°17' E 006°37'0 0.0
2014-Jul-25 00:33N 43°17' E 006°37'0 0.0
2014-Jul-24 23:33N 43°17' E 006°37'0 0.0
2014-Jul-24 22:33N 43°17' E 006°37'0 0.0
2014-Jul-24 21:33N 43°17' E 006°37'6 6.4
2014-Jul-24 20:33N 43°20' E 006°44'1312.7
2014-Jul-24 19:33N 43°27' E 006°59'1413.5
2014-Jul-24 18:32N 43°36' E 007°14'8 0.3
2014-Jul-23 18:23N 43°42' E 007°20'0 0.0
2014-Jul-23 02:17N 43°42' E 007°20'0 0.0
2014-Jul-22 15:11N 43°42' E 007°20'0 0.0
2014-Jul-22 12:11N 43°42' E 007°20'0 0.0
2014-Jul-22 05:33N 43°42' E 007°20'0 0.0
2014-Jul-22 04:28N 43°42' E 007°20'0 0.0
2014-Jul-22 03:25N 43°42' E 007°20'0 0.1
2014-Jul-22 02:21N 43°42' E 007°20'0 0.1
2014-Jul-22 01:25N 43°42' E 007°21'0 0.0
2014-Jul-22 00:33N 43°42' E 007°21'0 0.0
2014-Jul-21 23:30N 43°42' E 007°21'0 0.0
2014-Jul-21 22:08N 43°42' E 007°20'0 0.0
2014-Jul-21 21:12N 43°42' E 007°20'0 0.0
2014-Jul-21 20:01N 43°42' E 007°20'  

Dump ship's entire track history